createdAt,value
2019-02-20T00:04:41.110Z,17.13
2019-02-20T00:09:45.790Z,16.63
2019-02-20T00:14:50.574Z,13.90
2019-02-20T00:19:55.315Z,15.27
2019-02-20T00:24:59.989Z,14.93
2019-02-20T00:30:05.143Z,14.63
2019-02-20T00:35:09.887Z,13.57
2019-02-20T00:40:14.645Z,15.30
2019-02-20T00:45:41.904Z,11.15
2019-02-20T00:50:47.070Z,12.40
2019-02-20T00:55:51.880Z,12.87
2019-02-20T01:00:56.635Z,10.23
2019-02-20T01:06:01.445Z,12.37
2019-02-20T01:11:06.137Z,13.03
2019-02-20T01:16:11.078Z,12.93
2019-02-20T01:21:16.174Z,14.43
2019-02-20T01:26:21.039Z,13.90
2019-02-20T01:31:25.716Z,11.67
2019-02-20T01:36:30.438Z,14.97
2019-02-20T01:41:35.116Z,11.50
2019-02-20T01:46:39.783Z,10.77
2019-02-20T01:51:45.066Z,12.57
2019-02-20T01:56:49.784Z,11.77
2019-02-20T02:01:55.554Z,13.90
2019-02-20T02:07:00.252Z,9.90
2019-02-20T02:12:04.956Z,8.57
2019-02-20T02:17:09.744Z,10.30
2019-02-20T02:22:14.398Z,10.67
2019-02-20T02:27:19.056Z,8.57
2019-02-20T02:32:23.794Z,10.10
2019-02-20T02:37:28.490Z,7.93
2019-02-20T02:42:33.182Z,8.43
2019-02-20T02:47:37.928Z,8.20
2019-02-20T02:52:42.722Z,12.17
2019-02-20T02:57:47.408Z,10.77
2019-02-20T03:02:52.137Z,8.03
2019-02-20T03:07:56.805Z,6.83
2019-02-20T03:13:01.459Z,8.57
2019-02-20T03:18:06.160Z,11.20
2019-02-20T03:23:10.971Z,9.53
2019-02-20T03:28:15.781Z,9.80
2019-02-20T03:33:20.507Z,7.47
2019-02-20T03:38:30.311Z,7.13
2019-02-20T03:43:31.753Z,11.33
2019-02-20T03:48:36.738Z,14.00
2019-02-20T03:53:50.880Z,10.00
2019-02-20T03:58:47.805Z,9.87
2019-02-20T04:03:52.463Z,11.40
2019-02-20T04:08:57.165Z,10.00
2019-02-20T04:14:02.188Z,15.57
2019-02-20T04:19:06.889Z,12.03
2019-02-20T04:24:11.599Z,12.17
2019-02-20T04:29:16.415Z,11.00
2019-02-20T04:34:21.093Z,13.17
2019-02-20T04:39:25.862Z,15.63
2019-02-20T04:44:31.651Z,14.93
2019-02-20T04:49:36.323Z,17.20
2019-02-20T04:54:41.056Z,20.60
2019-02-20T04:59:45.988Z,14.77
2019-02-20T05:04:50.691Z,12.17
2019-02-20T05:09:55.383Z,12.00
2019-02-20T05:14:59.996Z,17.30
2019-02-20T05:20:05.116Z,14.57
2019-02-20T05:25:09.808Z,14.90
2019-02-20T05:30:14.494Z,18.77
2019-02-20T05:35:19.174Z,15.27
2019-02-20T05:40:23.814Z,13.53
2019-02-20T05:45:28.510Z,12.73
2019-02-20T05:50:33.252Z,13.73
2019-02-20T05:55:37.985Z,20.27
2019-02-20T06:00:42.944Z,12.10
2019-02-20T06:05:47.690Z,15.67
2019-02-20T06:10:52.430Z,14.10
2019-02-20T06:15:57.099Z,14.60
2019-02-20T06:21:01.802Z,18.47
2019-02-20T06:26:06.539Z,19.37
2019-02-20T06:31:11.274Z,17.83
2019-02-20T06:36:16.907Z,16.73
2019-02-20T06:41:21.637Z,16.03
2019-02-20T06:46:26.325Z,16.87
2019-02-20T06:51:31.000Z,16.93
2019-02-20T06:56:35.690Z,15.23
2019-02-20T07:01:40.387Z,15.03
2019-02-20T07:07:00.591Z,12.43
2019-02-20T07:12:25.718Z,15.83
2019-02-20T07:18:02.570Z,17.97
2019-02-20T07:23:17.310Z,15.60
2019-02-20T07:28:52.281Z,19.67
2019-02-20T07:33:58.280Z,18.37
2019-02-20T07:39:03.251Z,15.40
2019-02-20T07:44:08.884Z,14.90
2019-02-20T07:49:13.644Z,16.13
2019-02-20T07:54:19.398Z,16.13
2019-02-20T07:59:24.141Z,19.37
2019-02-20T08:04:28.805Z,18.03
2019-02-20T08:09:33.458Z,18.17
2019-02-20T08:14:38.156Z,21.53
2019-02-20T08:19:42.833Z,19.60
2019-02-20T08:24:47.527Z,15.03
2019-02-20T08:29:52.206Z,18.90
2019-02-20T08:34:56.905Z,16.07
2019-02-20T08:40:01.601Z,16.80
2019-02-20T08:45:07.849Z,20.00
2019-02-20T08:50:13.336Z,13.83
2019-02-20T08:55:18.916Z,17.32
2019-02-20T09:00:25.050Z,16.67
2019-02-20T09:05:29.768Z,15.83
2019-02-20T09:10:34.774Z,20.27
2019-02-20T09:15:39.441Z,19.20
2019-02-20T09:20:44.131Z,17.50
2019-02-20T09:25:48.801Z,13.23
2019-02-20T09:30:54.468Z,13.17
2019-02-20T09:35:59.168Z,14.77
2019-02-20T09:41:04.645Z,15.43
2019-02-20T09:46:09.341Z,16.50
2019-02-20T09:51:14.029Z,25.48
2019-02-20T09:56:18.717Z,20.90
2019-02-20T10:01:23.419Z,16.57
2019-02-20T10:06:28.182Z,17.80
2019-02-20T10:11:32.971Z,16.20
2019-02-20T10:16:37.659Z,20.97
2019-02-20T10:21:42.367Z,22.47
2019-02-20T10:26:47.065Z,19.80
2019-02-20T10:31:51.761Z,19.70
2019-02-20T10:36:56.761Z,20.00
2019-02-20T10:42:01.504Z,20.10
2019-02-20T10:47:06.387Z,20.87
2019-02-20T10:52:11.974Z,23.40
2019-02-20T10:57:17.786Z,17.67
2019-02-20T11:02:22.700Z,20.73
2019-02-20T11:07:27.466Z,15.77
2019-02-20T11:12:32.212Z,18.87
2019-02-20T11:17:37.415Z,18.37
2019-02-20T11:22:42.304Z,23.50
2019-02-20T11:27:46.977Z,17.57
2019-02-20T11:32:51.650Z,23.73
2019-02-20T11:37:56.329Z,17.37
2019-02-20T11:43:01.042Z,18.70
2019-02-20T11:48:05.748Z,20.27
2019-02-20T11:53:10.435Z,20.97
2019-02-20T11:58:15.111Z,17.80
2019-02-20T12:03:19.792Z,20.17
2019-02-20T12:08:24.582Z,18.97
2019-02-20T12:13:29.272Z,14.83
2019-02-20T12:18:34.010Z,20.90
2019-02-20T12:23:38.778Z,20.50
2019-02-20T12:28:43.510Z,16.20
2019-02-20T12:33:48.253Z,21.13
2019-02-20T12:38:53.004Z,18.57
2019-02-20T12:43:57.735Z,20.17
2019-02-20T12:49:02.807Z,22.10
2019-02-20T12:54:07.498Z,12.77
2019-02-20T12:59:12.242Z,20.80
2019-02-20T13:04:16.962Z,20.80
2019-02-20T13:09:21.957Z,19.93
2019-02-20T13:14:26.672Z,20.15
2019-02-20T13:19:31.395Z,21.93
2019-02-20T13:24:36.071Z,17.17
2019-02-20T13:29:40.785Z,18.87
2019-02-20T13:34:45.543Z,20.13
2019-02-20T13:39:52.121Z,19.13
2019-02-20T13:44:56.631Z,14.03
2019-02-20T13:50:01.380Z,15.10
2019-02-20T13:55:06.890Z,17.67
2019-02-20T14:00:13.334Z,15.43
2019-02-20T14:05:18.331Z,18.47
2019-02-20T14:10:23.091Z,17.42
2019-02-20T14:15:27.858Z,19.63
2019-02-20T14:20:32.735Z,18.67
2019-02-20T14:25:37.726Z,14.77
2019-02-20T14:30:42.565Z,13.10
2019-02-20T14:35:47.310Z,14.73
2019-02-20T14:40:53.034Z,14.50
2019-02-20T14:45:58.075Z,15.87
2019-02-20T14:51:02.806Z,19.37
2019-02-20T14:56:07.667Z,18.60
2019-02-20T15:01:13.170Z,19.02
2019-02-20T15:06:18.353Z,16.93
2019-02-20T15:11:24.505Z,20.57
2019-02-20T15:16:29.572Z,16.33
2019-02-20T15:21:34.275Z,16.93
2019-02-20T15:26:40.699Z,16.07
2019-02-20T15:31:46.665Z,15.20
2019-02-20T15:36:51.429Z,16.17
2019-02-20T15:41:56.177Z,14.67
2019-02-20T15:47:01.261Z,19.73
2019-02-20T15:52:06.005Z,16.23
2019-02-20T15:57:10.813Z,18.90
2019-02-20T16:02:15.566Z,17.60
2019-02-20T16:07:20.348Z,25.63
2019-02-20T16:12:25.633Z,19.63
2019-02-20T16:17:30.397Z,22.50
2019-02-20T16:22:35.201Z,23.90
2019-02-20T16:27:46.786Z,18.97
2019-02-20T16:32:46.577Z,16.47
2019-02-20T16:37:51.912Z,22.77
2019-02-20T16:42:56.664Z,25.20
2019-02-20T16:48:01.432Z,20.73
2019-02-20T16:53:06.783Z,20.50
2019-02-20T16:58:11.556Z,18.53
2019-02-20T17:03:16.382Z,23.50
2019-02-20T17:08:21.414Z,20.93
2019-02-20T17:13:26.190Z,20.13
2019-02-20T17:18:30.970Z,17.63
2019-02-20T17:23:35.739Z,16.67
2019-02-20T17:28:40.566Z,16.43
2019-02-20T17:33:45.326Z,20.70
2019-02-20T17:38:50.420Z,21.70
2019-02-20T17:43:55.257Z,23.10
2019-02-20T17:49:00.309Z,17.53
2019-02-20T17:54:05.080Z,17.90
2019-02-20T17:59:09.920Z,29.65
2019-02-20T18:04:14.779Z,17.07
2019-02-20T18:09:19.557Z,15.53
2019-02-20T18:14:24.321Z,18.67
2019-02-20T18:19:29.048Z,17.00
2019-02-20T18:24:34.065Z,17.03
2019-02-20T18:29:38.768Z,19.90
2019-02-20T18:34:43.551Z,19.97
2019-02-20T18:39:48.310Z,17.00
2019-02-20T18:44:53.095Z,16.27
2019-02-20T18:49:57.807Z,19.47
2019-02-20T18:55:05.933Z,18.33
2019-02-20T19:00:11.767Z,13.90
2019-02-20T19:05:18.708Z,15.33
2019-02-20T19:10:30.373Z,12.43
2019-02-20T19:16:01.951Z,13.77
2019-02-20T19:21:39.210Z,15.33
2019-02-20T19:27:03.341Z,16.10
2019-02-20T19:32:43.636Z,16.33
2019-02-20T19:38:16.725Z,12.73
2019-02-20T19:43:51.200Z,10.10
2019-02-20T19:49:19.528Z,15.10
2019-02-20T19:54:42.078Z,10.77
2019-02-20T20:00:20.231Z,16.00
2019-02-20T20:06:09.395Z,15.03
2019-02-20T20:11:45.101Z,14.75
2019-02-20T20:17:03.504Z,19.60
2019-02-20T20:22:51.682Z,16.17
2019-02-20T20:28:33.511Z,12.77
2019-02-20T20:34:18.713Z,16.20
2019-02-20T20:39:50.600Z,15.07
2019-02-20T20:45:37.681Z,14.13
2019-02-20T20:50:51.921Z,14.03
2019-02-20T20:56:21.255Z,14.17
2019-02-20T21:01:46.464Z,14.13
2019-02-20T21:07:23.895Z,13.17
2019-02-20T21:12:55.120Z,11.57
2019-02-20T21:18:28.141Z,12.70
2019-02-20T21:24:13.175Z,15.03
2019-02-20T21:29:28.554Z,17.40
2019-02-20T21:35:10.848Z,11.63
2019-02-20T21:40:57.130Z,10.63
2019-02-20T21:46:11.309Z,12.70
2019-02-20T21:51:53.585Z,13.87
2019-02-20T21:57:32.853Z,11.03
2019-02-20T22:03:16.647Z,13.77
2019-02-20T22:09:11.751Z,11.37
2019-02-20T22:14:50.417Z,10.63
2019-02-20T22:21:07.149Z,11.33
2019-02-20T22:26:29.910Z,14.60
2019-02-20T22:31:56.667Z,12.00
2019-02-20T22:37:54.857Z,11.10
2019-02-20T22:43:46.459Z,14.30
2019-02-20T22:49:15.121Z,14.23
2019-02-20T22:54:55.663Z,13.67
2019-02-20T23:00:40.967Z,14.80
2019-02-20T23:06:22.333Z,12.77
2019-02-20T23:12:08.449Z,15.23
2019-02-20T23:17:14.103Z,15.93
2019-02-20T23:22:18.775Z,13.47
2019-02-20T23:27:23.447Z,13.10
2019-02-20T23:32:28.440Z,15.30
2019-02-20T23:37:33.129Z,13.07
2019-02-20T23:42:37.972Z,13.17
2019-02-20T23:47:42.662Z,12.40
2019-02-20T23:52:47.345Z,14.20
2019-02-20T23:57:52.066Z,15.70
